sensor_id;sensor_type;location;lat;lon;timestamp;pressure;altitude;pressure_sealevel;temperature;humidity
12951;BME280;6540;50.858;7.232;2023-02-17T00:00:08;51822.25;;;-142.34;29.75
12951;BME280;6540;50.858;7.232;2023-02-17T00:02:35;51808.16;;;-142.34;29.70
12951;BME280;6540;50.858;7.232;2023-02-17T00:05:01;51802.09;;;-142.34;29.92
12951;BME280;6540;50.858;7.232;2023-02-17T00:07:30;51790.00;;;-142.34;29.85
12951;BME280;6540;50.858;7.232;2023-02-17T00:09:56;51783.94;;;-142.34;29.78
12951;BME280;6540;50.858;7.232;2023-02-17T00:12:22;51818.22;;;-142.34;29.90
12951;BME280;6540;50.858;7.232;2023-02-17T00:14:47;51818.22;;;-142.34;29.97
12951;BME280;6540;50.858;7.232;2023-02-17T00:17:12;51802.09;;;-142.34;30.27
12951;BME280;6540;50.858;7.232;2023-02-17T00:19:38;51820.25;;;-142.34;30.33
12951;BME280;6540;50.858;7.232;2023-02-17T00:22:03;51802.09;;;-142.34;30.17
12951;BME280;6540;50.858;7.232;2023-02-17T00:24:30;51816.22;;;-142.34;30.16
12951;BME280;6540;50.858;7.232;2023-02-17T00:26:56;51826.31;;;-142.34;30.27
12951;BME280;6540;50.858;7.232;2023-02-17T00:29:21;51806.13;;;-142.34;30.12
12951;BME280;6540;50.858;7.232;2023-02-17T00:31:47;51798.06;;;-142.34;30.28
12951;BME280;6540;50.858;7.232;2023-02-17T00:34:12;51824.28;;;-142.34;30.38
12951;BME280;6540;50.858;7.232;2023-02-17T00:36:38;51816.22;;;-142.34;30.28
12951;BME280;6540;50.858;7.232;2023-02-17T00:39:04;51790.00;;;-142.34;30.17
12951;BME280;6540;50.858;7.232;2023-02-17T00:41:31;51802.09;;;-142.34;30.12
12951;BME280;6540;50.858;7.232;2023-02-17T00:43:56;51804.13;;;-142.34;30.09
12951;BME280;6540;50.858;7.232;2023-02-17T00:46:22;51802.09;;;-142.34;29.82
12951;BME280;6540;50.858;7.232;2023-02-17T00:48:48;51824.28;;;-142.34;30.36
12951;BME280;6540;50.858;7.232;2023-02-17T00:51:14;51830.34;;;-142.34;30.14
12951;BME280;6540;50.858;7.232;2023-02-17T00:53:40;51814.19;;;-142.34;30.49
12951;BME280;6540;50.858;7.232;2023-02-17T00:56:06;51824.28;;;-142.34;30.17
12951;BME280;6540;50.858;7.232;2023-02-17T00:58:31;51838.41;;;-142.34;30.19
12951;BME280;6540;50.858;7.232;2023-02-17T01:00:57;51830.34;;;-142.34;30.29
12951;BME280;6540;50.858;7.232;2023-02-17T01:03:23;51814.19;;;-142.34;30.31
12951;BME280;6540;50.858;7.232;2023-02-17T01:05:49;51846.47;;;-142.34;30.50
12951;BME280;6540;50.858;7.232;2023-02-17T01:08:15;51810.16;;;-142.34;30.46
12951;BME280;6540;50.858;7.232;2023-02-17T01:10:43;51834.38;;;-142.34;30.52
12951;BME280;6540;50.858;7.232;2023-02-17T01:13:10;51822.25;;;-142.34;30.22
12951;BME280;6540;50.858;7.232;2023-02-17T01:15:40;51832.34;;;-142.34;30.53
12951;BME280;6540;50.858;7.232;2023-02-17T01:18:06;51812.19;;;-142.34;30.48
12951;BME280;6540;50.858;7.232;2023-02-17T01:20:36;51785.94;;;-142.34;30.18
12951;BME280;6540;50.858;7.232;2023-02-17T01:23:03;51790.00;;;-142.34;31.05
12951;BME280;6540;50.858;7.232;2023-02-17T01:25:29;51842.44;;;-142.34;30.52
12951;BME280;6540;50.858;7.232;2023-02-17T01:27:54;51822.25;;;-142.34;30.43
12951;BME280;6540;50.858;7.232;2023-02-17T01:30:20;51832.34;;;-142.34;30.50
12951;BME280;6540;50.858;7.232;2023-02-17T01:32:45;51816.22;;;-142.34;30.48
12951;BME280;6540;50.858;7.232;2023-02-17T01:35:11;51828.31;;;-142.34;30.89
12951;BME280;6540;50.858;7.232;2023-02-17T01:37:36;51818.22;;;-142.34;30.56
12951;BME280;6540;50.858;7.232;2023-02-17T01:40:02;51808.16;;;-142.34;30.68
12951;BME280;6540;50.858;7.232;2023-02-17T01:42:27;51806.13;;;-142.34;30.75
12951;BME280;6540;50.858;7.232;2023-02-17T01:48:10;51822.25;;;-142.34;30.10
12951;BME280;6540;50.858;7.232;2023-02-17T01:50:54;51832.34;;;-142.34;30.36
12951;BME280;6540;50.858;7.232;2023-02-17T01:53:27;51824.28;;;-142.34;30.38
12951;BME280;6540;50.858;7.232;2023-02-17T01:55:53;51846.47;;;-142.34;30.92
12951;BME280;6540;50.858;7.232;2023-02-17T01:58:22;51816.22;;;-142.34;30.24
12951;BME280;6540;50.858;7.232;2023-02-17T02:00:49;51830.34;;;-142.34;30.03
12951;BME280;6540;50.858;7.232;2023-02-17T02:03:16;51812.19;;;-142.34;30.31
12951;BME280;6540;50.858;7.232;2023-02-17T02:05:42;51830.34;;;-142.34;30.34
12951;BME280;6540;50.858;7.232;2023-02-17T02:08:09;51816.22;;;-142.34;30.36
12951;BME280;6540;50.858;7.232;2023-02-17T02:10:35;51794.03;;;-142.34;30.29
12951;BME280;6540;50.858;7.232;2023-02-17T02:13:00;51862.63;;;-142.34;30.14
12951;BME280;6540;50.858;7.232;2023-02-17T02:15:32;51798.06;;;-142.34;30.17
12951;BME280;6540;50.858;7.232;2023-02-17T02:34:05;51771.84;;;-142.34;30.19
12951;BME280;6540;50.858;7.232;2023-02-17T02:36:55;51775.88;;;-142.34;29.89
12951;BME280;6540;50.858;7.232;2023-02-17T02:39:28;51834.38;;;-142.34;30.37
12951;BME280;6540;50.858;7.232;2023-02-17T02:42:05;51816.22;;;-142.34;29.92
12951;BME280;6540;50.858;7.232;2023-02-17T02:44:32;51820.25;;;-142.34;30.17
12951;BME280;6540;50.858;7.232;2023-02-17T02:49:23;51814.19;;;-142.34;30.07
12951;BME280;6540;50.858;7.232;2023-02-17T02:51:55;51830.34;;;-142.34;29.99
12951;BME280;6540;50.858;7.232;2023-02-17T02:54:28;51777.88;;;-142.34;29.82
12951;BME280;6540;50.858;7.232;2023-02-17T02:57:03;51798.06;;;-142.34;29.63
12951;BME280;6540;50.858;7.232;2023-02-17T03:02:56;51822.25;;;-142.34;29.46
12951;BME280;6540;50.858;7.232;2023-02-17T03:08:11;51773.84;;;-142.34;30.07
12951;BME280;6540;50.858;7.232;2023-02-17T03:10:48;51792.00;;;-142.34;30.03
12951;BME280;6540;50.858;7.232;2023-02-17T03:13:15;51828.31;;;-142.34;30.13
12951;BME280;6540;50.858;7.232;2023-02-17T03:15:41;51806.13;;;-142.34;30.99
12951;BME280;6540;50.858;7.232;2023-02-17T03:18:06;51838.41;;;-142.34;30.11
12951;BME280;6540;50.858;7.232;2023-02-17T03:20:36;51798.06;;;-142.34;30.70
12951;BME280;6540;50.858;7.232;2023-02-17T03:23:02;51820.25;;;-142.34;30.57
12951;BME280;6540;50.858;7.232;2023-02-17T03:25:28;51802.09;;;-142.34;29.56
12951;BME280;6540;50.858;7.232;2023-02-17T03:27:53;51810.16;;;-142.34;30.02
12951;BME280;6540;50.858;7.232;2023-02-17T03:30:19;51822.25;;;-142.34;30.91
12951;BME280;6540;50.858;7.232;2023-02-17T03:32:44;51846.47;;;-142.34;30.87
12951;BME280;6540;50.858;7.232;2023-02-17T03:35:11;51785.94;;;-142.34;30.84
12951;BME280;6540;50.858;7.232;2023-02-17T03:37:37;51810.16;;;-142.34;30.62
12951;BME280;6540;50.858;7.232;2023-02-17T03:40:03;51822.25;;;-142.34;31.04
12951;BME280;6540;50.858;7.232;2023-02-17T03:42:29;51832.34;;;-142.34;31.87
12951;BME280;6540;50.858;7.232;2023-02-17T03:44:54;51818.22;;;-142.34;31.25
12951;BME280;6540;50.858;7.232;2023-02-17T03:47:19;51862.63;;;-142.34;30.80
12951;BME280;6540;50.858;7.232;2023-02-17T03:49:45;51830.34;;;-142.34;31.18
12951;BME280;6540;50.858;7.232;2023-02-17T03:52:10;51806.13;;;-142.34;30.39
12951;BME280;6540;50.858;7.232;2023-02-17T03:54:37;51822.25;;;-142.34;30.82
12951;BME280;6540;50.858;7.232;2023-02-17T03:57:02;51808.16;;;-142.34;30.34
12951;BME280;6540;50.858;7.232;2023-02-17T03:59:30;51814.19;;;-142.34;30.63
12951;BME280;6540;50.858;7.232;2023-02-17T04:01:56;51822.25;;;-142.34;30.77
12951;BME280;6540;50.858;7.232;2023-02-17T04:04:21;51836.38;;;-142.34;31.25
12951;BME280;6540;50.858;7.232;2023-02-17T04:06:46;51818.22;;;-142.34;31.26
12951;BME280;6540;50.858;7.232;2023-02-17T04:09:12;51812.19;;;-142.34;30.42
12951;BME280;6540;50.858;7.232;2023-02-17T04:11:37;51854.53;;;-142.34;30.58
12951;BME280;6540;50.858;7.232;2023-02-17T04:14:02;51822.25;;;-142.34;29.86
12951;BME280;6540;50.858;7.232;2023-02-17T04:16:28;51842.44;;;-142.34;29.54
12951;BME280;6540;50.858;7.232;2023-02-17T04:18:53;51848.50;;;-142.34;30.48
12951;BME280;6540;50.858;7.232;2023-02-17T04:21:19;51792.00;;;-142.34;30.67
12951;BME280;6540;50.858;7.232;2023-02-17T04:23:44;51832.34;;;-142.34;30.18
12951;BME280;6540;50.858;7.232;2023-02-17T04:26:10;51818.22;;;-142.34;30.92
12951;BME280;6540;50.858;7.232;2023-02-17T04:28:40;51806.13;;;-142.34;30.07
12951;BME280;6540;50.858;7.232;2023-02-17T04:31:06;51836.38;;;-142.34;29.73
12951;BME280;6540;50.858;7.232;2023-02-17T04:33:31;51794.03;;;-142.34;30.51
12951;BME280;6540;50.858;7.232;2023-02-17T04:35:57;51818.22;;;-142.34;29.89
12951;BME280;6540;50.858;7.232;2023-02-17T04:38:30;51800.06;;;-142.34;29.92
12951;BME280;6540;50.858;7.232;2023-02-17T04:40:56;51802.09;;;-142.34;29.38
12951;BME280;6540;50.858;7.232;2023-02-17T04:43:23;51761.75;;;-142.34;29.49
12951;BME280;6540;50.858;7.232;2023-02-17T04:45:48;51790.00;;;-142.34;29.12
12951;BME280;6540;50.858;7.232;2023-02-17T04:48:14;51816.22;;;-142.34;28.78
12951;BME280;6540;50.858;7.232;2023-02-17T04:50:39;51769.81;;;-142.34;29.48
12951;BME280;6540;50.858;7.232;2023-02-17T04:53:05;51783.94;;;-142.34;29.09
12951;BME280;6540;50.858;7.232;2023-02-17T04:55:30;51785.94;;;-142.34;29.62
12951;BME280;6540;50.858;7.232;2023-02-17T04:57:57;51781.91;;;-142.34;29.32
12951;BME280;6540;50.858;7.232;2023-02-17T05:00:23;51775.88;;;-142.34;29.17
12951;BME280;6540;50.858;7.232;2023-02-17T05:02:48;51787.97;;;-142.34;28.97
12951;BME280;6540;50.858;7.232;2023-02-17T05:05:14;51769.81;;;-142.34;29.00
12951;BME280;6540;50.858;7.232;2023-02-17T05:07:41;51757.72;;;-142.34;29.00
12951;BME280;6540;50.858;7.232;2023-02-17T05:10:06;51781.91;;;-142.34;29.08
12951;BME280;6540;50.858;7.232;2023-02-17T05:12:32;51765.78;;;-142.34;29.17
12951;BME280;6540;50.858;7.232;2023-02-17T05:14:57;51794.03;;;-142.34;29.36
12951;BME280;6540;50.858;7.232;2023-02-17T05:17:22;51773.84;;;-142.34;29.31
12951;BME280;6540;50.858;7.232;2023-02-17T05:19:48;51775.88;;;-142.34;29.46
12951;BME280;6540;50.858;7.232;2023-02-17T05:22:13;51804.13;;;-142.34;30.16
12951;BME280;6540;50.858;7.232;2023-02-17T05:24:38;51798.06;;;-142.34;29.41
12951;BME280;6540;50.858;7.232;2023-02-17T05:27:04;51798.06;;;-142.34;29.68
12951;BME280;6540;50.858;7.232;2023-02-17T05:29:29;51822.25;;;-142.34;29.35
12951;BME280;6540;50.858;7.232;2023-02-17T05:31:54;51822.25;;;-142.34;29.07
12951;BME280;6540;50.858;7.232;2023-02-17T05:34:22;51785.94;;;-142.34;29.21
12951;BME280;6540;50.858;7.232;2023-02-17T05:36:47;51779.91;;;-142.34;29.42
12951;BME280;6540;50.858;7.232;2023-02-17T05:39:13;51798.06;;;-142.34;29.49
12951;BME280;6540;50.858;7.232;2023-02-17T05:41:38;51790.00;;;-142.34;29.29
12951;BME280;6540;50.858;7.232;2023-02-17T05:44:03;51820.25;;;-142.34;29.30
12951;BME280;6540;50.858;7.232;2023-02-17T05:46:29;51794.03;;;-142.34;29.17
12951;BME280;6540;50.858;7.232;2023-02-17T05:48:54;51769.81;;;-142.34;29.29
12951;BME280;6540;50.858;7.232;2023-02-17T05:51:19;51806.13;;;-142.34;29.02
12951;BME280;6540;50.858;7.232;2023-02-17T05:53:45;51785.94;;;-142.34;29.30
12951;BME280;6540;50.858;7.232;2023-02-17T05:56:10;51804.13;;;-142.34;29.43
12951;BME280;6540;50.858;7.232;2023-02-17T05:58:35;51800.06;;;-142.34;29.41
12951;BME280;6540;50.858;7.232;2023-02-17T06:01:01;51787.97;;;-142.34;29.24
12951;BME280;6540;50.858;7.232;2023-02-17T06:03:26;51798.06;;;-142.34;29.41
12951;BME280;6540;50.858;7.232;2023-02-17T06:05:51;51781.91;;;-142.34;29.12
12951;BME280;6540;50.858;7.232;2023-02-17T06:08:17;51802.09;;;-142.34;29.58
12951;BME280;6540;50.858;7.232;2023-02-17T06:10:42;51796.03;;;-142.34;29.40
12951;BME280;6540;50.858;7.232;2023-02-17T06:13:08;51810.16;;;-142.34;29.35
12951;BME280;6540;50.858;7.232;2023-02-17T06:15:33;51773.84;;;-142.34;29.65
12951;BME280;6540;50.858;7.232;2023-02-17T06:17:58;51808.16;;;-142.34;29.39
12951;BME280;6540;50.858;7.232;2023-02-17T06:20:24;51822.25;;;-142.34;29.56
12951;BME280;6540;50.858;7.232;2023-02-17T06:22:49;51810.16;;;-142.34;29.48
12951;BME280;6540;50.858;7.232;2023-02-17T06:25:15;51802.09;;;-142.34;30.46
12951;BME280;6540;50.858;7.232;2023-02-17T06:27:40;51785.94;;;-142.34;29.79
12951;BME280;6540;50.858;7.232;2023-02-17T06:30:09;51794.03;;;-142.34;29.55
12951;BME280;6540;50.858;7.232;2023-02-17T06:32:34;51810.16;;;-142.34;29.42
12951;BME280;6540;50.858;7.232;2023-02-17T06:35:00;51787.97;;;-142.34;29.22
12951;BME280;6540;50.858;7.232;2023-02-17T06:37:25;51806.13;;;-142.34;29.84
12951;BME280;6540;50.858;7.232;2023-02-17T06:39:50;51810.16;;;-142.34;29.71
12951;BME280;6540;50.858;7.232;2023-02-17T06:42:16;51804.13;;;-142.34;30.28
12951;BME280;6540;50.858;7.232;2023-02-17T06:44:41;51792.00;;;-142.34;30.08
12951;BME280;6540;50.858;7.232;2023-02-17T06:47:06;51804.13;;;-142.34;29.87
12951;BME280;6540;50.858;7.232;2023-02-17T06:49:32;51816.22;;;-142.34;29.53
12951;BME280;6540;50.858;7.232;2023-02-17T06:51:57;51802.09;;;-142.34;29.65
12951;BME280;6540;50.858;7.232;2023-02-17T06:54:22;51796.03;;;-142.34;30.04
12951;BME280;6540;50.858;7.232;2023-02-17T06:56:48;51794.03;;;-142.34;29.48
12951;BME280;6540;50.858;7.232;2023-02-17T06:59:13;51802.09;;;-142.34;29.63
12951;BME280;6540;50.858;7.232;2023-02-17T07:01:38;51804.13;;;-142.34;29.56
12951;BME280;6540;50.858;7.232;2023-02-17T07:04:04;51818.22;;;-142.34;29.58
12951;BME280;6540;50.858;7.232;2023-02-17T07:06:29;51753.69;;;-142.34;30.05
12951;BME280;6540;50.858;7.232;2023-02-17T07:08:55;51785.94;;;-142.34;29.55
12951;BME280;6540;50.858;7.232;2023-02-17T07:11:21;51814.19;;;-142.34;30.11
12951;BME280;6540;50.858;7.232;2023-02-17T07:13:47;51777.88;;;-142.34;29.80
12951;BME280;6540;50.858;7.232;2023-02-17T07:16:13;51777.88;;;-142.34;29.66
12951;BME280;6540;50.858;7.232;2023-02-17T07:18:39;51777.88;;;-142.34;29.97
12951;BME280;6540;50.858;7.232;2023-02-17T07:21:06;51806.13;;;-142.34;29.47
12951;BME280;6540;50.858;7.232;2023-02-17T07:23:32;51810.16;;;-142.34;29.14
12951;BME280;6540;50.858;7.232;2023-02-17T07:26:08;51804.13;;;-142.34;30.05
12951;BME280;6540;50.858;7.232;2023-02-17T07:28:35;51806.13;;;-142.34;29.98
12951;BME280;6540;50.858;7.232;2023-02-17T07:31:08;51798.06;;;-142.34;30.02
12951;BME280;6540;50.858;7.232;2023-02-17T07:33:34;51832.34;;;-142.34;30.06
12951;BME280;6540;50.858;7.232;2023-02-17T07:36:08;51802.09;;;-142.34;30.60
12951;BME280;6540;50.858;7.232;2023-02-17T07:38:34;51814.19;;;-142.34;29.90
12951;BME280;6540;50.858;7.232;2023-02-17T07:41:11;51794.03;;;-142.34;30.35
12951;BME280;6540;50.858;7.232;2023-02-17T07:43:36;51814.19;;;-142.34;30.21
12951;BME280;6540;50.858;7.232;2023-02-17T07:46:06;51798.06;;;-142.34;29.62
12951;BME280;6540;50.858;7.232;2023-02-17T07:48:31;51794.03;;;-142.34;29.32
12951;BME280;6540;50.858;7.232;2023-02-17T07:51:03;51794.03;;;-142.34;29.12
12951;BME280;6540;50.858;7.232;2023-02-17T07:53:29;51792.00;;;-142.34;29.36
12951;BME280;6540;50.858;7.232;2023-02-17T07:55:54;51749.66;;;-142.34;29.34
12951;BME280;6540;50.858;7.232;2023-02-17T07:58:20;51792.00;;;-142.34;29.58
12951;BME280;6540;50.858;7.232;2023-02-17T08:00:45;51781.91;;;-142.34;28.98
12951;BME280;6540;50.858;7.232;2023-02-17T08:03:10;51785.94;;;-142.34;29.29
12951;BME280;6540;50.858;7.232;2023-02-17T08:05:38;51779.91;;;-142.34;29.37
12951;BME280;6540;50.858;7.232;2023-02-17T08:08:04;51804.13;;;-142.34;29.60
12951;BME280;6540;50.858;7.232;2023-02-17T08:10:48;51753.69;;;-142.34;30.20
12951;BME280;6540;50.858;7.232;2023-02-17T08:13:40;51775.88;;;-142.34;29.59
12951;BME280;6540;50.858;7.232;2023-02-17T08:16:05;51820.25;;;-142.34;29.33
12951;BME280;6540;50.858;7.232;2023-02-17T08:18:30;51785.94;;;-142.34;30.26
12951;BME280;6540;50.858;7.232;2023-02-17T08:20:56;51771.84;;;-142.34;30.23
12951;BME280;6540;50.858;7.232;2023-02-17T08:23:21;51781.91;;;-142.34;29.83
12951;BME280;6540;50.858;7.232;2023-02-17T08:25:46;51814.19;;;-142.34;30.06
12951;BME280;6540;50.858;7.232;2023-02-17T08:28:12;51822.25;;;-142.34;29.56
12951;BME280;6540;50.858;7.232;2023-02-17T08:30:38;51741.56;;;-142.34;29.64
12951;BME280;6540;50.858;7.232;2023-02-17T08:33:04;51753.69;;;-142.34;29.47
12951;BME280;6540;50.858;7.232;2023-02-17T08:35:30;51783.94;;;-142.34;29.36
12951;BME280;6540;50.858;7.232;2023-02-17T08:37:55;51761.75;;;-142.34;29.22
12951;BME280;6540;50.858;7.232;2023-02-17T08:40:20;51781.91;;;-142.34;29.28
12951;BME280;6540;50.858;7.232;2023-02-17T08:42:46;51781.91;;;-142.34;29.10
12951;BME280;6540;50.858;7.232;2023-02-17T08:45:13;51759.72;;;-142.34;29.87
12951;BME280;6540;50.858;7.232;2023-02-17T08:47:39;51737.53;;;-142.34;29.24
12951;BME280;6540;50.858;7.232;2023-02-17T08:50:08;51755.69;;;-142.34;29.07
12951;BME280;6540;50.858;7.232;2023-02-17T08:52:34;51729.47;;;-142.34;29.60
12951;BME280;6540;50.858;7.232;2023-02-17T08:54:59;51749.66;;;-142.34;29.31
12951;BME280;6540;50.858;7.232;2023-02-17T08:57:25;51767.81;;;-142.34;29.53
12951;BME280;6540;50.858;7.232;2023-02-17T08:59:51;51745.59;;;-142.34;29.17
12951;BME280;6540;50.858;7.232;2023-02-17T09:02:17;51745.59;;;-142.34;29.16
12951;BME280;6540;50.858;7.232;2023-02-17T09:04:42;51765.78;;;-142.34;28.82
12951;BME280;6540;50.858;7.232;2023-02-17T09:07:10;51705.25;;;-142.34;28.76
12951;BME280;6540;50.858;7.232;2023-02-17T09:09:36;51749.66;;;-142.34;30.19
12951;BME280;6540;50.858;7.232;2023-02-17T09:12:01;51765.78;;;-142.34;30.88
12951;BME280;6540;50.858;7.232;2023-02-17T09:14:27;51753.69;;;-142.34;29.95
12951;BME280;6540;50.858;7.232;2023-02-17T09:16:54;51745.59;;;-142.34;30.30
12951;BME280;6540;50.858;7.232;2023-02-17T09:19:20;51777.88;;;-142.34;30.26
12951;BME280;6540;50.858;7.232;2023-02-17T09:21:46;51781.91;;;-142.34;31.16
12951;BME280;6540;50.858;7.232;2023-02-17T09:24:12;51790.00;;;-142.34;30.75
12951;BME280;6540;50.858;7.232;2023-02-17T09:26:38;51794.03;;;-142.34;32.45
12951;BME280;6540;50.858;7.232;2023-02-17T09:29:04;51806.13;;;-142.34;32.40
12951;BME280;6540;50.858;7.232;2023-02-17T09:31:30;51798.06;;;-142.34;31.71
12951;BME280;6540;50.858;7.232;2023-02-17T09:33:56;51779.91;;;-142.34;31.62
12951;BME280;6540;50.858;7.232;2023-02-17T09:36:28;51777.88;;;-142.34;30.99
12951;BME280;6540;50.858;7.232;2023-02-17T09:38:54;51757.72;;;-142.34;30.65
12951;BME280;6540;50.858;7.232;2023-02-17T09:43:51;51741.56;;;-142.34;30.83
12951;BME280;6540;50.858;7.232;2023-02-17T09:46:28;51773.84;;;-142.34;30.39
12951;BME280;6540;50.858;7.232;2023-02-17T09:48:58;51751.66;;;-142.34;31.13
12951;BME280;6540;50.858;7.232;2023-02-17T09:54:06;51745.59;;;-142.34;30.21
12951;BME280;6540;50.858;7.232;2023-02-17T09:56:40;51779.91;;;-142.34;29.53
12951;BME280;6540;50.858;7.232;2023-02-17T09:59:17;51725.44;;;-142.34;30.45
12951;BME280;6540;50.858;7.232;2023-02-17T10:01:45;51753.69;;;-142.34;30.19
12951;BME280;6540;50.858;7.232;2023-02-17T10:04:16;51765.78;;;-142.34;31.26
12951;BME280;6540;50.858;7.232;2023-02-17T10:06:45;51747.63;;;-142.34;29.95
12951;BME280;6540;50.858;7.232;2023-02-17T10:09:14;51769.81;;;-142.34;30.26
12951;BME280;6540;50.858;7.232;2023-02-17T10:17:12;51757.72;;;-142.34;30.14
12951;BME280;6540;50.858;7.232;2023-02-17T10:19:51;51769.81;;;-142.34;31.04
12951;BME280;6540;50.858;7.232;2023-02-17T10:22:20;51745.59;;;-142.34;30.92
12951;BME280;6540;50.858;7.232;2023-02-17T10:24:46;51810.16;;;-142.34;32.47
12951;BME280;6540;50.858;7.232;2023-02-17T10:38:51;51769.81;;;-142.34;31.45
12951;BME280;6540;50.858;7.232;2023-02-17T10:41:26;51769.81;;;-142.34;32.03
12951;BME280;6540;50.858;7.232;2023-02-17T10:43:57;51769.81;;;-142.34;31.59
12951;BME280;6540;50.858;7.232;2023-02-17T10:46:28;51761.75;;;-142.34;31.55
12951;BME280;6540;50.858;7.232;2023-02-17T10:48:56;51773.84;;;-142.34;31.33
12951;BME280;6540;50.858;7.232;2023-02-17T10:51:28;51785.94;;;-142.34;31.91
12951;BME280;6540;50.858;7.232;2023-02-17T10:54:18;51796.03;;;-142.34;31.77
12951;BME280;6540;50.858;7.232;2023-02-17T10:56:52;51777.88;;;-142.34;32.21
12951;BME280;6540;50.858;7.232;2023-02-17T10:59:26;51794.03;;;-142.34;31.75
12951;BME280;6540;50.858;7.232;2023-02-17T11:02:50;51755.69;;;-142.34;31.51
12951;BME280;6540;50.858;7.232;2023-02-17T11:04:51;51779.91;;;-142.34;31.76
12951;BME280;6540;50.858;7.232;2023-02-17T11:07:30;51757.72;;;-142.34;30.73
12951;BME280;6540;50.858;7.232;2023-02-17T11:09:59;51769.81;;;-142.34;31.14
12951;BME280;6540;50.858;7.232;2023-02-17T11:12:46;51781.91;;;-142.34;31.43
12951;BME280;6540;50.858;7.232;2023-02-17T11:15:16;51781.91;;;-142.34;31.55
12951;BME280;6540;50.858;7.232;2023-02-17T11:17:43;51747.63;;;-142.34;30.96
12951;BME280;6540;50.858;7.232;2023-02-17T11:22:40;51790.00;;;-142.34;32.62
12951;BME280;6540;50.858;7.232;2023-02-17T11:27:54;51794.03;;;-142.34;31.72
12951;BME280;6540;50.858;7.232;2023-02-17T11:30:20;51792.00;;;-142.34;31.40
12951;BME280;6540;50.858;7.232;2023-02-17T11:32:47;51794.03;;;-142.34;31.23
12951;BME280;6540;50.858;7.232;2023-02-17T11:38:10;51781.91;;;-142.34;30.88
12951;BME280;6540;50.858;7.232;2023-02-17T11:40:36;51763.75;;;-142.34;30.90
12951;BME280;6540;50.858;7.232;2023-02-17T11:43:03;51785.94;;;-142.34;31.72
12951;BME280;6540;50.858;7.232;2023-02-17T11:45:43;51781.91;;;-142.34;31.11
12951;BME280;6540;50.858;7.232;2023-02-17T11:51:24;51769.81;;;-142.34;30.09
12951;BME280;6540;50.858;7.232;2023-02-17T11:56:36;51781.91;;;-142.34;30.87
12951;BME280;6540;50.858;7.232;2023-02-17T11:59:34;51765.78;;;-142.34;30.12
12951;BME280;6540;50.858;7.232;2023-02-17T12:02:13;51785.94;;;-142.34;31.51
12951;BME280;6540;50.858;7.232;2023-02-17T12:07:38;51777.88;;;-142.34;30.64
12951;BME280;6540;50.858;7.232;2023-02-17T12:13:06;51745.59;;;-142.34;30.37
12951;BME280;6540;50.858;7.232;2023-02-17T12:15:52;51757.72;;;-142.34;29.97
12951;BME280;6540;50.858;7.232;2023-02-17T12:18:25;51759.72;;;-142.34;32.32
12951;BME280;6540;50.858;7.232;2023-02-17T12:26:44;51790.00;;;-142.34;31.94
12951;BME280;6540;50.858;7.232;2023-02-17T12:29:32;51794.03;;;-142.34;31.86
12951;BME280;6540;50.858;7.232;2023-02-17T12:37:58;51787.97;;;-142.34;31.41
12951;BME280;6540;50.858;7.232;2023-02-17T12:40:35;51783.94;;;-142.34;31.96
12951;BME280;6540;50.858;7.232;2023-02-17T12:45:45;51792.00;;;-142.34;31.57
12951;BME280;6540;50.858;7.232;2023-02-17T12:48:20;51765.78;;;-142.34;30.79
12951;BME280;6540;50.858;7.232;2023-02-17T12:50:55;51785.94;;;-142.34;31.25
12951;BME280;6540;50.858;7.232;2023-02-17T12:53:58;51846.47;;;-142.34;31.42
12951;BME280;6540;50.858;7.232;2023-02-17T12:56:45;51806.13;;;-142.34;31.21
12951;BME280;6540;50.858;7.232;2023-02-17T12:59:18;51759.72;;;-142.34;30.04
12951;BME280;6540;50.858;7.232;2023-02-17T13:01:53;51753.69;;;-142.34;30.63
12951;BME280;6540;50.858;7.232;2023-02-17T13:04:22;51773.84;;;-142.34;31.10
12951;BME280;6540;50.858;7.232;2023-02-17T13:06:54;51747.63;;;-142.34;29.83
12951;BME280;6540;50.858;7.232;2023-02-17T13:14:57;51745.59;;;-142.34;30.21
12951;BME280;6540;50.858;7.232;2023-02-17T13:17:39;51739.56;;;-142.34;29.55
12951;BME280;6540;50.858;7.232;2023-02-17T13:22:41;51763.75;;;-142.34;31.48
12951;BME280;6540;50.858;7.232;2023-02-17T13:25:12;51759.72;;;-142.34;30.42
12951;BME280;6540;50.858;7.232;2023-02-17T13:27:39;51753.69;;;-142.34;30.80
12951;BME280;6540;50.858;7.232;2023-02-17T13:30:06;51773.84;;;-142.34;31.28
12951;BME280;6540;50.858;7.232;2023-02-17T13:32:36;51759.72;;;-142.34;30.43
12951;BME280;6540;50.858;7.232;2023-02-17T13:35:46;51769.81;;;-142.34;31.11
12951;BME280;6540;50.858;7.232;2023-02-17T13:37:53;51783.94;;;-142.34;30.24
12951;BME280;6540;50.858;7.232;2023-02-17T13:45:26;51794.03;;;-142.34;30.77
12951;BME280;6540;50.858;7.232;2023-02-17T13:47:55;51783.94;;;-142.34;31.59
12951;BME280;6540;50.858;7.232;2023-02-17T13:53:28;51798.06;;;-142.34;31.27
12951;BME280;6540;50.858;7.232;2023-02-17T13:56:04;51779.91;;;-142.34;32.06
12951;BME280;6540;50.858;7.232;2023-02-17T13:58:32;51785.94;;;-142.34;32.28
12951;BME280;6540;50.858;7.232;2023-02-17T14:01:02;51818.22;;;-142.34;31.54
12951;BME280;6540;50.858;7.232;2023-02-17T14:03:50;51826.31;;;-142.34;31.25
12951;BME280;6540;50.858;7.232;2023-02-17T14:06:26;51796.03;;;-142.34;31.23
12951;BME280;6540;50.858;7.232;2023-02-17T14:08:53;51812.19;;;-142.34;32.02
12951;BME280;6540;50.858;7.232;2023-02-17T14:11:20;51828.31;;;-142.34;31.10
12951;BME280;6540;50.858;7.232;2023-02-17T14:13:54;51796.03;;;-142.34;31.89
12951;BME280;6540;50.858;7.232;2023-02-17T14:16:34;51794.03;;;-142.34;31.99
12951;BME280;6540;50.858;7.232;2023-02-17T14:19:07;51806.13;;;-142.34;30.91
12951;BME280;6540;50.858;7.232;2023-02-17T14:21:34;51816.22;;;-142.34;32.06
12951;BME280;6540;50.858;7.232;2023-02-17T14:23:59;51777.88;;;-142.34;31.74
12951;BME280;6540;50.858;7.232;2023-02-17T14:29:05;51794.03;;;-142.34;32.11
12951;BME280;6540;50.858;7.232;2023-02-17T14:31:56;51822.25;;;-142.34;30.91
12951;BME280;6540;50.858;7.232;2023-02-17T14:34:26;51820.25;;;-142.34;32.09
12951;BME280;6540;50.858;7.232;2023-02-17T14:36:52;51814.19;;;-142.34;31.35
12951;BME280;6540;50.858;7.232;2023-02-17T14:39:17;51785.94;;;-142.34;31.13